Time;durP1;ratioP1;P1;durP2;ratioP2;P2;SDS_P1;SDS_P2;PMS_P1;PMS_P2;Temp;Humidity;BMP_temperature;BMP_pressure;BME280_temperature;BME280_humidity;BME280_pressure;Samples;Min_cycle;Max_cycle;Signal;HPM_P1;HPM_P2
2023/05/19 04:08:19;;;;;;;4.40;2.70;;;21.20;99.90;;;;;;5415341;23;20281;-95
2023/05/19 04:10:51;;;;;;;5.00;2.53;;;21.00;99.90;;;;;;4933189;29;20679;-96
2023/05/19 04:13:24;;;;;;;3.90;2.90;;;21.00;99.90;;;;;;4942524;29;20216;-96
2023/05/19 04:15:55;;;;;;;5.83;2.50;;;20.90;99.90;;;;;;4938800;29;20235;-96
2023/05/19 04:18:27;;;;;;;5.57;2.50;;;20.70;99.90;;;;;;4928040;29;20235;-95
2023/05/19 04:21:00;;;;;;;4.10;2.17;;;20.70;99.90;;;;;;4933267;29;20209;-96
2023/05/19 04:23:33;;;;;;;7.13;2.87;;;20.60;99.90;;;;;;4938042;29;20218;-96
2023/05/19 04:26:05;;;;;;;3.77;2.37;;;20.60;99.90;;;;;;4942565;29;20216;-96
2023/05/19 04:28:40;;;;;;;3.20;2.40;;;20.50;99.90;;;;;;4945824;28;20268;-94
2023/05/19 04:31:13;;;;;;;3.73;2.67;;;20.50;99.90;;;;;;4949159;29;20271;-96
2023/05/19 04:33:44;;;;;;;4.70;2.50;;;20.40;99.90;;;;;;4956631;29;20212;-96
2023/05/19 04:36:20;;;;;;;4.23;2.50;;;20.40;99.90;;;;;;4956372;28;20271;-96
2023/05/19 04:39:01;;;;;;;3.47;2.70;;;20.30;99.90;;;;;;4943150;29;20295;-96
2023/05/19 04:41:32;;;;;;;7.73;2.83;;;20.10;99.90;;;;;;4935457;29;20736;-96
2023/05/19 04:44:06;;;;;;;3.70;2.83;;;20.00;99.90;;;;;;4939364;29;20205;-96
2023/05/19 04:46:37;;;;;;;3.97;2.77;;;19.90;99.90;;;;;;4935832;29;20236;-96
2023/05/19 04:49:11;;;;;;;4.43;2.60;;;19.90;99.90;;;;;;4938154;29;20227;-96
2023/05/19 04:51:44;;;;;;;5.90;2.80;;;19.90;99.90;;;;;;4931922;29;20204;-96
2023/05/19 04:54:18;;;;;;;3.27;2.70;;;19.80;99.90;;;;;;4939583;29;20207;-96
2023/05/19 04:56:49;;;;;;;4.00;2.60;;;19.70;99.90;;;;;;4938707;29;20218;-96
2023/05/19 04:59:20;;;;;;;6.90;2.63;;;19.70;99.90;;;;;;4940489;29;20819;-96
2023/05/19 05:01:51;;;;;;;4.50;2.60;;;19.70;99.90;;;;;;4936278;29;20207;-96
2023/05/19 05:04:23;;;;;;;5.80;2.90;;;19.60;99.90;;;;;;4942746;29;20209;-96
2023/05/19 05:06:55;;;;;;;7.57;3.20;;;19.50;99.90;;;;;;4926360;29;20205;-96
2023/05/19 05:09:29;;;;;;;4.53;2.67;;;19.50;99.90;;;;;;4935918;29;20212;-96
2023/05/19 05:12:03;;;;;;;12.57;3.80;;;19.40;99.90;;;;;;4959207;28;20235;-96
2023/05/19 05:14:35;;;;;;;4.57;3.30;;;19.40;99.90;;;;;;4958988;28;20184;-95
2023/05/19 05:17:08;;;;;;;7.50;2.80;;;19.30;99.90;;;;;;4946527;29;20266;-95
2023/05/19 05:19:40;;;;;;;5.60;2.87;;;19.30;99.90;;;;;;4938336;29;20250;-96
2023/05/19 05:22:15;;;;;;;6.03;2.83;;;19.20;99.90;;;;;;4939657;29;20284;-96
2023/05/19 05:24:49;;;;;;;3.87;2.70;;;19.20;99.90;;;;;;4938981;29;20209;-96
2023/05/19 05:27:23;;;;;;;3.83;2.70;;;19.10;99.90;;;;;;4938417;29;20291;-96
2023/05/19 05:29:54;;;;;;;5.80;2.77;;;19.10;99.90;;;;;;4922448;29;20209;-96
2023/05/19 05:32:27;;;;;;;3.70;2.50;;;19.00;99.90;;;;;;4934849;29;20263;-96
2023/05/19 05:35:00;;;;;;;4.47;2.87;;;18.90;99.90;;;;;;4932355;29;20216;-95
2023/05/19 05:37:32;;;;;;;4.23;2.50;;;18.90;99.90;;;;;;4935611;29;20213;-96
2023/05/19 05:40:09;;;;;;;4.17;2.40;;;18.80;99.90;;;;;;4940306;29;20234;-96
2023/05/19 05:42:42;;;;;;;4.20;2.40;;;18.80;99.90;;;;;;4930037;29;20258;-96
2023/05/19 05:45:14;;;;;;;3.20;2.47;;;18.70;99.90;;;;;;4922369;29;20220;-96
2023/05/19 05:47:46;;;;;;;3.37;2.47;;;18.60;99.90;;;;;;4923524;29;20209;-96
2023/05/19 05:50:19;;;;;;;5.27;2.50;;;18.50;99.90;;;;;;4941471;29;20313;-96
2023/05/19 05:52:51;;;;;;;5.03;2.50;;;18.50;99.90;;;;;;4940249;29;20205;-96
2023/05/19 05:55:26;;;;;;;4.97;2.63;;;18.40;99.90;;;;;;4942768;29;20287;-96
2023/05/19 05:57:58;;;;;;;3.93;2.60;;;18.30;99.90;;;;;;4921310;29;20205;-95
2023/05/19 06:00:29;;;;;;;2.80;2.40;;;18.20;99.90;;;;;;4934878;29;20712;-96
2023/05/19 06:03:01;;;;;;;4.63;2.70;;;18.20;99.90;;;;;;4940236;29;20216;-95
2023/05/19 06:05:33;;;;;;;4.53;2.70;;;18.10;99.90;;;;;;4941486;29;20216;-96
2023/05/19 06:08:06;;;;;;;5.63;2.83;;;18.00;99.90;;;;;;4940866;29;20673;-96
2023/05/19 06:10:42;;;;;;;5.43;2.70;;;18.00;99.90;;;;;;4928630;29;20213;-96
2023/05/19 06:13:21;;;;;;;4.67;2.60;;;18.00;99.90;;;;;;4933939;29;20215;-96
2023/05/19 06:15:54;;;;;;;3.10;2.27;;;17.90;99.90;;;;;;4941378;29;20212;-96
2023/05/19 06:18:28;;;;;;;8.67;2.60;;;17.90;99.90;;;;;;4942727;29;20212;-96
2023/05/19 06:20:59;;;;;;;3.90;2.40;;;17.80;99.90;;;;;;4922847;29;20232;-96
2023/05/19 06:23:32;;;;;;;6.27;2.73;;;17.80;99.90;;;;;;4922497;29;20219;-96
2023/05/19 06:26:05;;;;;;;5.77;2.60;;;17.70;99.90;;;;;;4927539;29;20212;-95
2023/05/19 06:28:37;;;;;;;4.63;2.50;;;17.70;99.90;;;;;;4949223;29;20288;-96
2023/05/19 06:31:09;;;;;;;5.57;2.27;;;17.70;99.90;;;;;;4937467;29;20215;-96
2023/05/19 06:33:40;;;;;;;8.73;2.73;;;17.70;99.90;;;;;;4924831;29;20669;-96
2023/05/19 06:36:12;;;;;;;4.33;2.20;;;17.60;99.90;;;;;;4940313;29;20586;-96
2023/05/19 06:38:44;;;;;;;5.63;2.37;;;17.50;99.90;;;;;;4938598;29;20212;-96
2023/05/19 06:41:18;;;;;;;3.87;2.40;;;17.40;99.90;;;;;;4930101;29;20243;-96
2023/05/19 06:43:50;;;;;;;4.30;2.53;;;17.40;99.90;;;;;;4939619;29;20274;-96
2023/05/19 06:46:22;;;;;;;5.00;2.43;;;17.40;99.90;;;;;;4940067;29;20212;-96
2023/05/19 06:48:53;;;;;;;5.10;2.53;;;17.40;99.90;;;;;;4958540;28;20231;-96
2023/05/19 06:51:25;;;;;;;7.70;2.60;;;17.40;99.90;;;;;;4938216;29;20219;-96
2023/05/19 06:53:57;;;;;;;4.37;2.10;;;17.30;99.90;;;;;;4942533;29;20217;-96
2023/05/19 06:56:32;;;;;;;7.07;2.57;;;17.30;99.90;;;;;;4939121;29;20263;-95
2023/05/19 06:59:05;;;;;;;3.97;2.77;;;17.30;99.90;;;;;;4936957;29;20753;-96
2023/05/19 07:01:37;;;;;;;8.20;2.93;;;17.20;99.90;;;;;;4943482;29;20256;-96
2023/05/19 07:04:08;;;;;;;4.37;2.67;;;17.20;99.90;;;;;;4956750;28;20200;-96
2023/05/19 07:06:40;;;;;;;5.90;2.80;;;17.20;99.90;;;;;;4952591;29;20197;-95
2023/05/19 07:09:11;;;;;;;4.63;2.40;;;17.20;99.90;;;;;;4939152;28;20271;-96
2023/05/19 07:11:45;;;;;;;5.03;2.57;;;17.10;99.90;;;;;;4960366;28;20203;-96
2023/05/19 07:14:17;;;;;;;5.33;3.03;;;17.10;99.90;;;;;;4958031;28;20256;-96
2023/05/19 07:16:49;;;;;;;7.27;3.03;;;17.00;99.90;;;;;;4960457;28;20195;-96
2023/05/19 07:19:21;;;;;;;4.53;2.90;;;16.90;99.90;;;;;;4960754;28;20188;-96
2023/05/19 07:21:52;;;;;;;4.13;2.53;;;16.90;99.90;;;;;;4959643;28;20223;-96
2023/05/19 07:24:24;;;;;;;4.13;2.77;;;16.80;99.90;;;;;;4957844;28;20256;-96
2023/05/19 07:26:57;;;;;;;4.00;2.70;;;16.80;99.90;;;;;;4957794;28;20184;-96
2023/05/19 07:29:28;;;;;;;3.97;2.67;;;16.80;99.90;;;;;;4943079;29;20220;-96
2023/05/19 07:32:00;;;;;;;3.70;2.83;;;16.80;99.90;;;;;;4940328;29;20303;-96
2023/05/19 07:34:32;;;;;;;4.20;2.70;;;16.80;99.90;;;;;;4940535;29;20272;-96
2023/05/19 07:37:03;;;;;;;7.07;2.90;;;16.70;99.90;;;;;;4942463;29;20232;-96
2023/05/19 07:39:36;;;;;;;4.87;2.90;;;16.70;99.90;;;;;;4943897;29;20211;-94
2023/05/19 07:42:11;;;;;;;4.10;2.60;;;16.70;99.90;;;;;;4938634;29;20309;-94
2023/05/19 07:44:43;;;;;;;4.00;2.67;;;16.70;99.90;;;;;;4945966;29;20290;-96
2023/05/19 07:47:14;;;;;;;4.90;2.40;;;16.60;99.90;;;;;;4935156;29;20228;-96
2023/05/19 07:49:46;;;;;;;5.00;2.20;;;16.50;99.90;;;;;;4937816;29;20209;-96
2023/05/19 07:52:20;;;;;;;2.80;2.30;;;16.30;99.90;;;;;;4939522;29;20291;-96
2023/05/19 07:54:52;;;;;;;3.40;2.70;;;16.20;99.90;;;;;;4939749;29;20216;-96
2023/05/19 07:57:25;;;;;;;7.87;2.30;;;16.20;99.90;;;;;;4932388;29;20216;-96
2023/05/19 07:59:58;;;;;;;3.03;1.93;;;16.10;99.90;;;;;;4937891;29;20215;-96
2023/05/19 08:02:29;;;;;;;2.93;1.97;;;16.10;99.90;;;;;;4947199;29;20235;-96
2023/05/19 08:05:00;;;;;;;5.63;2.47;;;16.00;99.90;;;;;;4948164;28;20221;-96
2023/05/19 08:07:32;;;;;;;6.00;2.30;;;15.90;99.90;;;;;;4959270;28;20211;-96
2023/05/19 08:10:05;;;;;;;4.57;2.13;;;15.90;99.90;;;;;;4943235;28;20217;-96
2023/05/19 08:12:38;;;;;;;3.60;2.30;;;15.90;99.90;;;;;;4940260;29;20212;-95
2023/05/19 08:15:11;;;;;;;3.40;2.27;;;15.90;99.90;;;;;;4943725;29;20267;-96
2023/05/19 08:17:42;;;;;;;3.77;2.23;;;15.90;99.90;;;;;;4950528;28;20219;-96
2023/05/19 08:20:14;;;;;;;6.03;2.47;;;15.80;99.90;;;;;;4952184;28;20649;-96
2023/05/19 08:22:45;;;;;;;8.83;2.30;;;15.80;99.90;;;;;;4925277;29;20215;-96
2023/05/19 08:25:16;;;;;;;6.93;2.20;;;15.80;99.90;;;;;;4938994;29;20722;-95
2023/05/19 08:27:49;;;;;;;5.03;2.20;;;15.80;99.90;;;;;;4929074;29;20276;-95
2023/05/19 08:30:21;;;;;;;2.97;2.00;;;15.80;99.90;;;;;;4956763;28;20227;-96
2023/05/19 08:32:52;;;;;;;2.97;2.07;;;15.80;99.90;;;;;;4955026;28;20209;-95
2023/05/19 08:35:24;;;;;;;4.43;2.30;;;15.90;99.90;;;;;;4957975;28;20220;-95
2023/05/19 08:37:55;;;;;;;5.47;2.03;;;15.80;99.90;;;;;;4952731;28;20272;-96
2023/05/19 08:40:30;;;;;;;5.03;2.23;;;15.80;99.90;;;;;;4958747;28;20196;-95
2023/05/19 08:43:03;;;;;;;3.93;2.33;;;15.80;99.90;;;;;;4955781;28;20223;-96
2023/05/19 08:45:35;;;;;;;3.10;2.27;;;15.80;99.90;;;;;;4959421;28;20228;-96
2023/05/19 08:48:07;;;;;;;3.90;2.43;;;15.80;99.90;;;;;;4958536;28;20268;-96
2023/05/19 08:50:42;;;;;;;5.73;2.27;;;15.80;99.90;;;;;;4958950;28;20214;-96
2023/05/19 08:53:21;;;;;;;2.47;2.27;;;15.70;99.90;;;;;;4953487;29;20203;-93
2023/05/19 08:56:09;;;;;;;2.80;2.27;;;15.60;99.90;;;;;;4952960;29;20724;-95
2023/05/19 08:58:43;;;;;;;3.93;2.40;;;15.60;99.90;;;;;;4946750;29;20211;-96
2023/05/19 09:01:17;;;;;;;5.10;2.20;;;15.50;99.90;;;;;;4939941;29;20232;-96
2023/05/19 09:03:49;;;;;;;4.20;2.53;;;15.50;99.90;;;;;;4941125;29;20295;-96
2023/05/19 09:06:21;;;;;;;6.63;2.20;;;15.50;99.90;;;;;;4936895;29;20652;-94
2023/05/19 09:08:52;;;;;;;5.00;2.30;;;15.50;99.90;;;;;;4922493;29;20220;-96
2023/05/19 09:11:23;;;;;;;4.43;2.03;;;15.50;99.90;;;;;;4925020;29;20213;-96
2023/05/19 09:13:57;;;;;;;5.07;2.00;;;15.50;99.90;;;;;;4939573;29;20230;-94
2023/05/19 09:16:31;;;;;;;5.03;1.83;;;15.40;99.90;;;;;;4942717;29;20239;-96
2023/05/19 09:19:03;;;;;;;5.47;2.53;;;15.40;99.90;;;;;;4925077;29;20233;-95
2023/05/19 09:21:35;;;;;;;3.67;2.30;;;15.30;99.90;;;;;;4923991;29;20236;-96
2023/05/19 09:24:08;;;;;;;3.00;2.17;;;15.30;99.90;;;;;;4934622;29;20212;-96
2023/05/19 09:26:41;;;;;;;3.53;2.10;;;15.30;99.90;;;;;;4942820;29;20753;-96
2023/05/19 09:29:18;;;;;;;2.60;2.10;;;15.30;99.90;;;;;;4943040;29;20661;-96
2023/05/19 09:31:51;;;;;;;5.47;2.30;;;15.30;99.90;;;;;;4954169;29;20208;-96
2023/05/19 09:34:25;;;;;;;4.87;2.30;;;15.20;99.90;;;;;;4961591;29;20200;-96
2023/05/19 09:36:58;;;;;;;4.57;2.23;;;15.20;99.90;;;;;;4959642;28;20278;-96
2023/05/19 09:39:29;;;;;;;4.27;2.20;;;15.10;99.90;;;;;;4927638;29;20219;-96
2023/05/19 09:42:05;;;;;;;4.60;2.07;;;15.10;99.90;;;;;;4924901;29;20233;-95
2023/05/19 09:44:39;;;;;;;3.30;2.17;;;15.10;99.90;;;;;;4942437;29;20866;-95
2023/05/19 09:47:11;;;;;;;4.23;2.17;;;15.10;99.90;;;;;;4954967;29;20205;-96
2023/05/19 09:49:48;;;;;;;2.53;2.10;;;15.10;99.90;;;;;;4938446;29;20197;-96
2023/05/19 09:52:20;;;;;;;3.00;2.20;;;15.00;99.90;;;;;;4946191;29;20202;-92
2023/05/19 09:54:53;;;;;;;3.17;2.10;;;15.00;99.90;;;;;;4953517;29;20235;-95
2023/05/19 09:57:28;;;;;;;2.20;2.00;;;14.90;99.90;;;;;;4945080;29;20228;-96
2023/05/19 10:00:08;;;;;;;2.90;1.90;;;14.90;99.90;;;;;;4945444;29;20240;-96
2023/05/19 10:02:43;;;;;;;6.63;2.27;;;14.80;99.90;;;;;;4945243;29;20323;-96
2023/05/19 10:05:19;;;;;;;2.43;2.00;;;14.80;99.90;;;;;;4930384;29;20259;-94
2023/05/19 10:07:53;;;;;;;2.60;2.10;;;14.80;99.90;;;;;;4935897;29;20212;-95
2023/05/19 10:10:24;;;;;;;4.47;2.33;;;14.70;99.90;;;;;;4944895;29;20212;-96
2023/05/19 10:12:56;;;;;;;3.63;2.20;;;14.60;99.90;;;;;;4941914;29;20216;-96
2023/05/19 10:15:29;;;;;;;2.77;2.10;;;14.50;99.90;;;;;;4936030;29;20208;-96
2023/05/19 10:18:06;;;;;;;2.67;2.10;;;14.50;99.90;;;;;;4929589;29;20215;-96
2023/05/19 10:20:38;;;;;;;3.53;2.47;;;14.50;99.90;;;;;;4939828;29;20239;-97
2023/05/19 10:23:09;;;;;;;3.37;2.43;;;14.40;99.90;;;;;;4940435;29;20240;-96
2023/05/19 10:25:42;;;;;;;3.53;2.53;;;14.40;99.90;;;;;;4926490;29;20220;-96
2023/05/19 10:28:19;;;;;;;4.17;2.47;;;14.40;99.90;;;;;;4921295;29;20205;-96
2023/05/19 10:30:57;;;;;;;2.73;2.40;;;14.40;99.90;;;;;;4923709;29;20209;-96
2023/05/19 10:33:41;;;;;;;3.47;2.43;;;14.50;99.90;;;;;;4923718;29;20680;-96
2023/05/19 10:36:30;;;;;;;3.20;1.97;;;14.50;99.90;;;;;;4920118;29;20220;-96
2023/05/19 10:39:07;;;;;;;2.40;2.20;;;14.40;99.90;;;;;;4933816;29;20219;-96
2023/05/19 10:41:48;;;;;;;4.80;2.27;;;14.40;99.90;;;;;;4921468;29;20204;-96
2023/05/19 10:44:32;;;;;;;3.57;2.20;;;14.40;99.90;;;;;;4919319;29;20213;-95
2023/05/19 10:47:10;;;;;;;2.20;2.00;;;14.40;99.90;;;;;;4935336;29;20218;-96
2023/05/19 10:49:42;;;;;;;2.80;2.13;;;14.30;99.90;;;;;;4938354;29;20661;-96
2023/05/19 10:52:24;;;;;;;3.73;1.97;;;14.30;99.90;;;;;;4927797;29;20292;-95
2023/05/19 10:54:57;;;;;;;4.23;2.27;;;14.30;99.90;;;;;;4920103;29;20674;-96
2023/05/19 10:57:31;;;;;;;3.90;2.63;;;14.30;99.90;;;;;;4934606;29;20208;-94
2023/05/19 11:00:10;;;;;;;3.40;2.70;;;14.30;99.90;;;;;;4919754;29;20234;-95
2023/05/19 11:02:44;;;;;;;3.23;2.30;;;14.30;99.90;;;;;;4936519;29;20240;-96
2023/05/19 11:05:18;;;;;;;5.23;2.20;;;14.30;99.90;;;;;;4938734;29;20283;-96
2023/05/19 11:08:01;;;;;;;3.13;2.33;;;14.30;99.90;;;;;;4929962;29;20308;-96
2023/05/19 11:10:34;;;;;;;3.40;2.47;;;14.30;99.90;;;;;;4940448;29;20208;-96
2023/05/19 11:13:06;;;;;;;2.67;2.47;;;14.30;99.90;;;;;;4939332;29;20205;-96
2023/05/19 11:15:37;;;;;;;5.20;2.10;;;14.20;99.90;;;;;;4941429;29;20212;-96
2023/05/19 11:18:12;;;;;;;2.97;2.17;;;14.20;99.90;;;;;;4940887;29;20213;-94
2023/05/19 11:20:43;;;;;;;2.77;2.13;;;14.30;99.90;;;;;;4946566;29;20661;-94
2023/05/19 11:23:18;;;;;;;2.70;2.30;;;14.30;99.90;;;;;;4942884;29;20229;-96
2023/05/19 11:25:52;;;;;;;2.97;2.03;;;14.30;99.90;;;;;;4929663;29;20208;-96
2023/05/19 11:28:28;;;;;;;3.37;2.60;;;14.20;99.90;;;;;;4939680;29;20669;-96
2023/05/19 11:31:06;;;;;;;4.37;2.73;;;14.20;99.90;;;;;;4941154;29;20303;-96
2023/05/19 11:33:41;;;;;;;4.13;3.00;;;14.20;99.90;;;;;;4940849;29;20208;-96
2023/05/19 11:36:15;;;;;;;2.50;2.30;;;14.20;99.90;;;;;;4942766;29;20216;-96
2023/05/19 11:38:48;;;;;;;3.27;2.50;;;14.20;99.90;;;;;;4934694;29;20212;-96
2023/05/19 11:41:20;;;;;;;3.40;2.33;;;14.10;99.90;;;;;;4941802;29;20208;-96
2023/05/19 11:43:51;;;;;;;6.50;2.43;;;14.10;99.90;;;;;;4959322;28;20247;-96
2023/05/19 11:46:22;;;;;;;3.50;2.60;;;13.90;99.90;;;;;;4949488;29;20209;-96
2023/05/19 11:48:56;;;;;;;4.20;2.57;;;13.80;99.90;;;;;;4936885;29;20212;-96
2023/05/19 11:51:28;;;;;;;4.37;2.80;;;13.70;99.90;;;;;;4920911;29;20213;-95
2023/05/19 11:53:59;;;;;;;3.87;2.60;;;13.60;99.90;;;;;;4928919;29;20283;-93
2023/05/19 11:56:36;;;;;;;4.60;2.70;;;13.60;99.90;;;;;;4939230;29;20315;-95
2023/05/19 11:59:07;;;;;;;2.77;2.53;;;13.60;99.90;;;;;;4940308;29;20212;-96
2023/05/19 12:01:39;;;;;;;3.80;3.03;;;13.70;99.90;;;;;;4951217;29;20231;-96
2023/05/19 12:04:12;;;;;;;4.13;3.00;;;13.70;99.90;;;;;;4947532;29;20239;-96
2023/05/19 12:06:44;;;;;;;3.30;2.60;;;13.70;99.90;;;;;;4938411;29;20227;-95
2023/05/19 12:09:16;;;;;;;3.73;2.57;;;13.80;99.90;;;;;;4937896;29;20220;-96
2023/05/19 12:11:48;;;;;;;3.57;2.53;;;13.80;99.90;;;;;;4938303;29;20205;-95
2023/05/19 12:14:20;;;;;;;5.67;2.50;;;13.80;99.90;;;;;;4941698;29;20212;-96
2023/05/19 12:16:52;;;;;;;4.73;2.40;;;13.80;99.90;;;;;;4911461;29;20219;-96
2023/05/19 12:19:27;;;;;;;2.93;2.40;;;13.80;99.90;;;;;;4940828;29;20216;-96
2023/05/19 12:21:58;;;;;;;3.60;2.10;;;13.70;99.90;;;;;;4941738;29;20395;-96
2023/05/19 12:24:34;;;;;;;3.40;2.37;;;13.80;99.90;;;;;;4947125;29;20236;-95
2023/05/19 12:27:14;;;;;;;3.33;2.67;;;13.70;99.90;;;;;;4948015;29;20275;-96
2023/05/19 12:29:50;;;;;;;4.03;2.50;;;13.70;99.90;;;;;;4951330;29;20212;-96
2023/05/19 12:32:25;;;;;;;4.40;2.53;;;13.70;99.90;;;;;;4951817;29;20639;-95
2023/05/19 12:34:59;;;;;;;5.83;2.77;;;13.70;99.90;;;;;;4936927;29;20220;-96
2023/05/19 12:37:32;;;;;;;4.13;2.77;;;13.70;99.90;;;;;;4931770;29;20209;-96
2023/05/19 12:40:04;;;;;;;3.10;2.17;;;13.70;99.90;;;;;;4921693;29;20243;-96
2023/05/19 12:42:36;;;;;;;3.00;2.70;;;13.70;99.90;;;;;;4924536;29;20212;-96
2023/05/19 12:45:08;;;;;;;4.10;2.70;;;13.70;99.90;;;;;;4933701;29;20213;-95
2023/05/19 12:47:39;;;;;;;4.80;3.10;;;13.70;99.90;;;;;;4917466;29;20239;-95
2023/05/19 12:50:15;;;;;;;3.80;2.90;;;13.70;99.90;;;;;;4918406;29;20651;-96
2023/05/19 12:52:50;;;;;;;4.10;2.50;;;13.70;99.90;;;;;;4933542;29;20219;-94
2023/05/19 12:55:22;;;;;;;3.87;2.47;;;13.70;99.90;;;;;;4936599;29;20707;-96
2023/05/19 12:57:56;;;;;;;4.43;2.80;;;13.70;99.90;;;;;;4936565;29;20244;-96
2023/05/19 13:00:30;;;;;;;3.47;3.17;;;13.70;99.90;;;;;;4929504;29;20219;-96
2023/05/19 13:03:04;;;;;;;5.27;2.80;;;13.80;99.90;;;;;;4928281;29;20314;-95
2023/05/19 13:05:42;;;;;;;3.83;3.07;;;13.70;99.90;;;;;;4937816;29;20216;-96
2023/05/19 13:08:16;;;;;;;7.77;2.70;;;13.80;99.90;;;;;;4918698;29;20307;-96
2023/05/19 13:10:49;;;;;;;3.07;2.60;;;13.90;99.90;;;;;;4918747;29;20215;-95
2023/05/19 13:13:21;;;;;;;4.20;2.77;;;13.90;99.90;;;;;;4920056;29;20650;-96
2023/05/19 13:15:52;;;;;;;6.33;2.80;;;14.00;99.90;;;;;;4918755;29;20212;-96
2023/05/19 13:18:30;;;;;;;4.57;2.90;;;14.00;99.90;;;;;;4935166;29;20669;-96
2023/05/19 13:21:04;;;;;;;3.90;2.40;;;13.90;99.90;;;;;;4918986;29;20208;-96
2023/05/19 13:23:36;;;;;;;4.67;2.83;;;13.90;99.90;;;;;;4920893;29;20706;-96
2023/05/19 13:26:10;;;;;;;4.33;2.80;;;13.90;99.90;;;;;;4921234;29;20276;-96
2023/05/19 13:28:42;;;;;;;3.67;2.80;;;14.00;99.90;;;;;;4922691;29;20680;-96
2023/05/19 13:31:13;;;;;;;7.07;2.73;;;14.00;99.90;;;;;;4927723;29;20200;-96
2023/05/19 13:33:47;;;;;;;8.23;3.80;;;14.00;99.90;;;;;;4922393;29;20212;-96
2023/05/19 13:36:20;;;;;;;3.73;3.07;;;14.00;99.90;;;;;;4922491;29;20201;-96
2023/05/19 13:38:51;;;;;;;5.37;2.70;;;14.00;99.90;;;;;;4924442;29;20213;-96
2023/05/19 13:41:25;;;;;;;4.17;2.97;;;14.10;99.90;;;;;;4929556;29;20216;-96
2023/05/19 13:43:59;;;;;;;5.00;3.47;;;14.10;99.90;;;;;;4923109;29;20239;-96
2023/05/19 13:46:30;;;;;;;3.90;3.03;;;14.10;99.90;;;;;;4933375;29;20295;-96
2023/05/19 13:49:15;;;;;;;5.10;2.90;;;14.10;99.90;;;;;;4946013;29;20240;-93
2023/05/19 13:51:48;;;;;;;4.77;2.67;;;14.20;99.90;;;;;;4953108;28;20200;-94
2023/05/19 13:54:19;;;;;;;5.57;3.53;;;14.30;99.90;;;;;;4961333;28;20203;-95
2023/05/19 13:56:51;;;;;;;5.10;3.97;;;14.40;99.90;;;;;;4942082;29;20253;-95
2023/05/19 13:59:23;;;;;;;7.00;3.83;;;14.40;99.90;;;;;;4924359;29;20268;-95
2023/05/19 14:01:55;;;;;;;6.80;4.57;;;14.50;99.90;;;;;;4941483;29;20300;-95
2023/05/19 14:04:26;;;;;;;3.93;3.53;;;14.50;99.90;;;;;;4935413;29;20746;-96
2023/05/19 14:07:00;;;;;;;7.47;3.80;;;14.60;99.90;;;;;;4923462;29;20213;-95
2023/05/19 14:09:31;;;;;;;4.80;3.70;;;14.60;99.90;;;;;;4922725;29;20670;-96
2023/05/19 14:12:02;;;;;;;6.03;4.30;;;14.70;99.90;;;;;;4925643;29;20595;-96
2023/05/19 14:14:34;;;;;;;5.10;4.33;;;14.70;99.90;;;;;;4940309;29;20227;-96
2023/05/19 14:17:05;;;;;;;5.33;4.20;;;14.80;99.90;;;;;;4960987;29;20568;-96
2023/05/19 14:19:37;;;;;;;7.00;4.90;;;14.90;99.90;;;;;;4951491;28;20291;-96
2023/05/19 14:22:12;;;;;;;5.47;4.60;;;14.90;99.90;;;;;;4944570;29;20226;-96
2023/05/19 14:24:43;;;;;;;5.77;4.47;;;14.80;99.90;;;;;;4947011;29;20255;-96
2023/05/19 14:27:14;;;;;;;5.43;4.53;;;14.90;99.90;;;;;;4944657;29;20219;-96
2023/05/19 14:29:47;;;;;;;5.97;4.80;;;14.80;99.90;;;;;;4944991;29;20214;-96
2023/05/19 14:32:20;;;;;;;4.40;4.00;;;14.90;99.90;;;;;;4945760;29;20220;-96
2023/05/19 14:34:51;;;;;;;7.03;4.53;;;15.10;99.90;;;;;;4942533;29;20539;-96
2023/05/19 14:37:25;;;;;;;5.43;4.77;;;15.00;99.90;;;;;;4941867;29;20208;-96
2023/05/19 14:39:57;;;;;;;6.97;3.87;;;15.20;99.90;;;;;;4941409;29;20231;-96
2023/05/19 14:42:28;;;;;;;5.63;4.37;;;15.30;99.90;;;;;;4931484;29;20205;-96
2023/05/19 14:45:00;;;;;;;6.57;4.03;;;15.40;99.90;;;;;;4924220;29;20233;-96
2023/05/19 14:47:32;;;;;;;6.73;5.03;;;15.50;99.90;;;;;;4945558;29;20236;-96
2023/05/19 14:50:04;;;;;;;5.83;4.30;;;15.60;99.90;;;;;;4943421;29;20212;-96
2023/05/19 14:52:38;;;;;;;5.97;4.10;;;15.60;99.90;;;;;;4941754;29;20299;-96
2023/05/19 14:55:10;;;;;;;4.93;4.03;;;15.70;99.90;;;;;;4931715;29;20233;-96
2023/05/19 14:57:41;;;;;;;4.67;3.93;;;15.70;99.90;;;;;;4933723;29;20208;-94
2023/05/19 15:00:14;;;;;;;6.33;3.87;;;15.80;99.90;;;;;;4922314;29;20213;-93
2023/05/19 15:02:45;;;;;;;5.90;4.27;;;15.80;99.90;;;;;;4937618;29;20240;-93
2023/05/19 15:05:17;;;;;;;5.10;4.00;;;15.80;99.90;;;;;;4946457;29;20283;-95
2023/05/19 15:07:51;;;;;;;4.83;3.47;;;15.90;99.90;;;;;;4938982;29;20220;-95
2023/05/19 15:10:23;;;;;;;4.33;3.77;;;15.80;99.90;;;;;;4930817;29;20614;-96
2023/05/19 15:12:55;;;;;;;4.97;4.37;;;15.80;99.90;;;;;;4923745;29;20233;-95
2023/05/19 15:15:27;;;;;;;4.13;3.50;;;15.80;99.90;;;;;;4934405;29;20259;-95
2023/05/19 15:17:59;;;;;;;6.03;4.23;;;15.90;99.90;;;;;;4940966;29;20201;-96
2023/05/19 15:20:31;;;;;;;6.00;4.50;;;16.10;99.90;;;;;;4950271;29;20195;-95
2023/05/19 15:23:04;;;;;;;5.57;4.03;;;16.10;99.90;;;;;;4944909;29;20205;-96
2023/05/19 15:25:37;;;;;;;4.70;4.20;;;15.80;99.90;;;;;;4941452;29;20209;-96
2023/05/19 15:28:09;;;;;;;8.50;4.80;;;15.90;99.90;;;;;;4949345;28;20205;-96
2023/05/19 15:30:41;;;;;;;6.20;4.00;;;15.70;99.90;;;;;;4947679;28;20201;-96
2023/05/19 15:33:13;;;;;;;5.43;4.20;;;15.90;99.90;;;;;;4952415;28;20272;-96
2023/05/19 15:35:46;;;;;;;5.10;4.03;;;16.00;99.90;;;;;;4952027;28;20212;-95
2023/05/19 15:38:20;;;;;;;6.83;4.50;;;16.10;99.90;;;;;;4957123;28;20277;-96
2023/05/19 15:40:51;;;;;;;4.77;4.13;;;16.10;99.90;;;;;;4959386;28;20236;-96
2023/05/19 15:43:22;;;;;;;7.53;4.00;;;16.00;99.90;;;;;;4945964;29;20212;-96
2023/05/19 15:45:54;;;;;;;7.93;5.13;;;15.90;99.90;;;;;;4937180;29;20630;-95
2023/05/19 15:48:27;;;;;;;5.13;4.00;;;16.00;99.90;;;;;;4937109;29;20341;-95
2023/05/19 15:50:59;;;;;;;7.10;4.27;;;16.10;99.90;;;;;;4937661;29;20574;-95
2023/05/19 15:53:33;;;;;;;4.70;3.93;;;16.20;99.90;;;;;;4939552;29;20296;-95
2023/05/19 15:56:05;;;;;;;6.23;4.53;;;16.20;99.90;;;;;;4940025;29;20287;-94
2023/05/19 15:58:36;;;;;;;6.17;4.40;;;16.30;99.90;;;;;;4937241;29;20704;-95
2023/05/19 16:01:09;;;;;;;9.57;5.20;;;16.30;99.90;;;;;;4945902;29;20219;-93
2023/05/19 16:03:40;;;;;;;5.17;4.57;;;16.30;99.90;;;;;;4942432;29;20220;-94
2023/05/19 16:06:12;;;;;;;5.03;4.53;;;16.10;99.90;;;;;;4954269;28;20232;-95
2023/05/19 16:08:46;;;;;;;5.20;4.13;;;16.00;99.90;;;;;;4938589;29;20318;-94
2023/05/19 16:11:19;;;;;;;8.20;4.57;;;16.20;99.90;;;;;;4935979;29;20223;-93
2023/05/19 16:13:50;;;;;;;5.60;4.47;;;16.40;99.90;;;;;;4939004;29;20212;-94
2023/05/19 16:16:22;;;;;;;5.43;4.53;;;16.50;99.90;;;;;;4937787;29;20692;-94
2023/05/19 16:18:54;;;;;;;5.60;4.67;;;16.70;99.90;;;;;;4937034;29;20737;-94
2023/05/19 16:21:25;;;;;;;6.97;4.83;;;16.70;99.90;;;;;;4936832;29;20307;-94
2023/05/19 16:23:59;;;;;;;6.77;5.07;;;16.70;99.90;;;;;;4933024;29;20327;-94
2023/05/19 16:26:31;;;;;;;6.30;5.37;;;16.50;99.90;;;;;;4939775;29;20315;-93
2023/05/19 16:29:02;;;;;;;8.70;5.13;;;16.40;99.90;;;;;;4931554;29;20208;-94
2023/05/19 16:31:33;;;;;;;7.73;5.13;;;16.60;99.90;;;;;;4930613;29;20200;-95
2023/05/19 16:34:06;;;;;;;12.13;5.33;;;16.70;99.90;;;;;;4948804;28;20236;-96
2023/05/19 16:36:37;;;;;;;9.73;4.80;;;16.90;99.90;;;;;;4932971;29;20204;-95
2023/05/19 16:39:10;;;;;;;6.80;4.77;;;17.10;99.90;;;;;;4921215;29;20212;-96
2023/05/19 16:41:42;;;;;;;7.50;5.23;;;17.20;99.90;;;;;;4923701;29;20283;-91
2023/05/19 16:44:15;;;;;;;8.47;4.97;;;17.20;99.90;;;;;;4954037;29;20283;-96
2023/05/19 16:46:46;;;;;;;6.13;4.87;;;17.20;99.90;;;;;;4957414;29;20232;-96
2023/05/19 16:49:18;;;;;;;6.23;4.97;;;17.20;99.90;;;;;;4957797;28;20213;-94
2023/05/19 16:51:48;;;;;;;5.70;4.57;;;17.10;99.90;;;;;;4958437;28;20240;-96
2023/05/19 16:54:22;;;;;;;8.00;5.03;;;17.10;99.90;;;;;;4949225;29;20201;-96
2023/05/19 16:56:53;;;;;;;9.40;5.17;;;16.90;99.90;;;;;;4951493;29;20272;-96
2023/05/19 16:59:23;;;;;;;9.07;4.70;;;17.30;99.90;;;;;;4953893;29;20191;-95
2023/05/19 17:01:55;;;;;;;6.50;5.37;;;17.50;99.90;;;;;;4948718;28;20217;-96
2023/05/19 17:04:27;;;;;;;5.87;5.03;;;17.50;99.90;;;;;;4939922;29;20263;-90
2023/05/19 17:06:59;;;;;;;9.90;5.53;;;17.60;99.90;;;;;;4920660;29;20659;-89
2023/05/19 17:09:32;;;;;;;4.93;4.07;;;17.50;99.90;;;;;;4917536;29;20208;-91
2023/05/19 17:12:03;;;;;;;6.20;5.07;;;17.60;99.90;;;;;;4929757;29;20489;-92
2023/05/19 17:14:34;;;;;;;6.67;5.43;;;17.70;99.90;;;;;;4932048;29;20206;-93
2023/05/19 17:17:06;;;;;;;9.77;4.73;;;18.00;99.90;;;;;;4933583;29;20266;-92
2023/05/19 17:19:37;;;;;;;7.83;4.73;;;18.10;99.90;;;;;;4917156;29;20331;-91
2023/05/19 17:22:08;;;;;;;7.80;4.50;;;18.40;99.90;;;;;;4917541;29;20296;-92
2023/05/19 17:24:41;;;;;;;5.90;4.63;;;18.70;99.90;;;;;;4919864;29;20215;-91